Time;durP1;ratioP1;P1;durP2;ratioP2;P2;SDS_P1;SDS_P2;PMS_P1;PMS_P2;Temp;Humidity;BMP_temperature;BMP_pressure;BME280_temperature;BME280_humidity;BME280_pressure;Samples;Min_cycle;Max_cycle;Signal;HPM_P1;HPM_P2
2021/12/12 00:01:54;;;;;;;21.58;7.38;;;;;;;1.74;98.60;101945.75;5041281;28;20549;-76
2021/12/12 00:04:31;;;;;;;34.42;8.10;;;;;;;1.72;98.53;101953.50;5043937;28;20037;-76
2021/12/12 00:07:01;;;;;;;36.53;8.68;;;;;;;1.72;98.83;101950.94;5045776;28;20043;-76
2021/12/12 00:09:34;;;;;;;27.63;7.55;;;;;;;1.68;99.03;101951.97;5022829;28;20087;-76
2021/12/12 00:12:04;;;;;;;22.42;8.15;;;;;;;1.63;98.92;101951.34;5042201;28;20090;-76
2021/12/12 00:14:32;;;;;;;20.90;7.22;;;;;;;1.75;98.44;101955.91;5039257;28;20375;-77
2021/12/12 00:16:58;;;;;;;26.92;7.75;;;;;;;1.85;98.58;101958.06;5043978;28;20395;-76
2021/12/12 00:19:26;;;;;;;16.92;6.57;;;;;;;1.77;98.24;101965.25;5044959;28;20041;-77
2021/12/12 00:21:55;;;;;;;27.48;7.72;;;;;;;1.87;98.52;101954.50;5043425;28;20033;-76
2021/12/12 00:24:21;;;;;;;28.00;7.35;;;;;;;1.83;98.10;101958.13;5044144;28;20358;-77
2021/12/12 00:26:50;;;;;;;28.00;7.57;;;;;;;1.81;98.67;101964.19;5038220;28;20079;-77
2021/12/12 00:29:18;;;;;;;27.13;7.78;;;;;;;1.82;98.10;101960.75;5039307;28;20033;-76
2021/12/12 00:31:45;;;;;;;17.85;6.72;;;;;;;1.85;98.50;101958.88;5044045;28;20043;-76
2021/12/12 00:34:11;;;;;;;21.80;6.68;;;;;;;1.82;98.39;101960.75;5042705;28;20060;-77
2021/12/12 00:36:40;;;;;;;22.25;6.88;;;;;;;1.94;98.21;101949.94;5041949;28;20478;-76
2021/12/12 00:39:17;;;;;;;23.38;6.30;;;;;;;2.00;97.76;101951.38;5044247;28;20389;-76
2021/12/12 00:41:49;;;;;;;21.88;6.88;;;;;;;2.10;97.18;101950.06;5036745;28;20609;-76
2021/12/12 00:44:15;;;;;;;19.73;6.35;;;;;;;2.08;96.58;101952.69;5042281;28;20036;-77
2021/12/12 00:46:41;;;;;;;16.98;6.53;;;;;;;2.14;96.21;101949.00;5044525;28;20082;-76
2021/12/12 00:49:08;;;;;;;18.85;6.18;;;;;;;2.04;96.24;101946.06;5044713;28;20280;-76
2021/12/12 00:51:39;;;;;;;24.88;6.53;;;;;;;2.12;96.45;101938.00;5043368;28;20028;-76
2021/12/12 00:54:07;;;;;;;20.65;6.40;;;;;;;2.13;96.37;101934.56;5041040;28;20037;-76
2021/12/12 00:56:32;;;;;;;25.40;7.05;;;;;;;2.17;95.66;101933.50;5039945;28;20470;-76
2021/12/12 00:58:59;;;;;;;21.40;7.65;;;;;;;2.05;95.99;101926.41;5045728;28;20086;-76
2021/12/12 01:01:29;;;;;;;20.45;6.82;;;;;;;2.16;95.47;101928.47;5042484;28;20043;-76
2021/12/12 01:04:00;;;;;;;19.30;7.35;;;;;;;2.16;94.88;101920.78;5044233;28;20032;-76
2021/12/12 01:06:26;;;;;;;29.45;6.38;;;;;;;2.19;94.64;101924.03;5042150;28;20130;-76
2021/12/12 01:08:55;;;;;;;21.85;7.45;;;;;;;2.24;94.35;101914.41;5043892;28;20029;-76
2021/12/12 01:11:35;;;;;;;28.35;7.53;;;;;;;2.22;94.23;101915.34;5025684;28;20492;-76
2021/12/12 01:14:05;;;;;;;19.92;5.80;;;;;;;2.18;94.15;101916.41;5043508;28;20489;-76
2021/12/12 01:16:37;;;;;;;15.30;6.03;;;;;;;2.17;94.17;101930.09;5041294;28;20037;-77
2021/12/12 01:19:52;;;;;;;22.13;7.63;;;;;;;2.22;94.17;101920.47;5045862;28;20056;-76
2021/12/12 01:22:26;;;;;;;25.63;6.57;;;;;;;2.11;94.30;101911.59;5034529;28;21238;-77
2021/12/12 01:24:53;;;;;;;20.25;6.22;;;;;;;2.17;93.94;101915.59;5042613;28;20036;-76
2021/12/12 01:27:19;;;;;;;17.08;6.32;;;;;;;2.14;94.06;101916.56;5022445;28;20426;-76
2021/12/12 01:29:49;;;;;;;22.75;5.95;;;;;;;2.18;94.11;101919.78;5046026;28;20098;-76
2021/12/12 01:32:24;;;;;;;25.02;5.82;;;;;;;2.18;94.00;101911.28;5043736;28;20291;-76
2021/12/12 01:34:51;;;;;;;19.17;5.90;;;;;;;2.25;93.81;101926.28;5025044;28;20043;-75
2021/12/12 01:39:51;;;;;;;22.92;6.28;;;;;;;2.31;94.15;101918.28;5046155;28;20033;-75
2021/12/12 01:42:22;;;;;;;20.75;6.68;;;;;;;2.27;93.77;101918.53;5048311;28;20171;-76
2021/12/12 01:45:09;;;;;;;25.38;6.65;;;;;;;2.30;93.73;101911.53;5048374;28;20508;-75
2021/12/12 01:48:21;;;;;;;19.35;6.10;;;;;;;2.35;93.46;101903.63;5029790;28;20048;-75
2021/12/12 01:50:51;;;;;;;19.48;6.30;;;;;;;2.37;93.28;101900.97;5027441;28;20051;-75
2021/12/12 01:53:23;;;;;;;19.58;6.30;;;;;;;2.34;93.30;101900.22;5041929;28;20638;-76
2021/12/12 01:56:07;;;;;;;25.42;6.53;;;;;;;2.33;93.31;101902.88;5039278;28;20701;-75
2021/12/12 01:58:37;;;;;;;26.05;6.97;;;;;;;2.40;93.02;101895.72;5033183;28;20181;-76
2021/12/12 02:01:14;;;;;;;17.67;5.80;;;;;;;2.31;93.19;101895.25;5046351;28;20032;-76
2021/12/12 02:03:47;;;;;;;22.48;6.50;;;;;;;2.38;93.18;101894.97;5030058;28;20252;-76
2021/12/12 02:06:14;;;;;;;20.45;5.80;;;;;;;2.37;93.10;101899.25;5044829;28;20072;-76
2021/12/12 02:08:41;;;;;;;24.48;6.20;;;;;;;2.47;92.67;101890.22;5030002;28;20393;-76
2021/12/12 02:11:11;;;;;;;16.40;6.53;;;;;;;2.37;93.21;101899.25;5046942;28;20124;-76
2021/12/12 02:13:41;;;;;;;16.23;5.88;;;;;;;2.38;93.10;101892.41;5047686;28;20043;-76
2021/12/12 02:16:07;;;;;;;23.08;6.35;;;;;;;2.36;93.37;101894.22;5041717;28;20033;-75
2021/12/12 02:18:37;;;;;;;19.35;5.80;;;;;;;2.33;93.50;101884.94;5045830;28;20033;-76
2021/12/12 02:21:15;;;;;;;23.10;5.75;;;;;;;2.37;93.60;101886.44;5026738;28;20025;-76
2021/12/12 02:35:31;;;;;;;26.10;5.70;;;;;;;2.52;92.88;101895.94;5042737;28;20037;-76
2021/12/12 02:37:58;;;;;;;21.65;5.78;;;;;;;2.54;93.00;101895.84;5036661;28;20033;-75
2021/12/12 02:40:34;;;;;;;15.98;5.95;;;;;;;2.64;92.36;101886.81;5044086;28;20025;-76
2021/12/12 02:43:01;;;;;;;13.07;5.22;;;;;;;2.70;92.17;101893.34;5044999;28;20037;-76
2021/12/12 02:45:30;;;;;;;13.38;5.78;;;;;;;2.68;92.52;101887.47;5047557;28;20055;-76
2021/12/12 02:48:01;;;;;;;17.27;5.32;;;;;;;2.63;92.74;101887.69;5041144;28;20069;-76
2021/12/12 02:50:34;;;;;;;14.50;5.85;;;;;;;2.65;92.64;101888.44;5044757;28;20448;-76
2021/12/12 02:53:14;;;;;;;13.88;5.35;;;;;;;2.67;92.77;101891.75;5044915;28;20124;-75
2021/12/12 02:55:46;;;;;;;19.17;5.20;;;;;;;2.71;92.99;101884.75;5045366;28;20128;-75
2021/12/12 02:58:14;;;;;;;22.95;6.40;;;;;;;2.77;92.48;101879.31;5042373;28;20555;-75
2021/12/12 03:00:45;;;;;;;15.90;5.15;;;;;;;2.81;92.31;101883.38;5028950;28;20460;-75
2021/12/12 03:03:12;;;;;;;21.60;4.95;;;;;;;2.85;92.17;101884.88;5044358;28;20118;-75
2021/12/12 03:05:42;;;;;;;20.10;4.85;;;;;;;2.82;92.33;101890.16;5043514;28;20036;-75
2021/12/12 03:08:09;;;;;;;17.88;4.72;;;;;;;2.85;92.15;101881.50;5039718;28;20040;-75
2021/12/12 03:10:38;;;;;;;14.98;4.85;;;;;;;2.76;92.57;101881.97;5045172;28;20041;-75
2021/12/12 03:13:05;;;;;;;21.02;5.22;;;;;;;2.83;93.08;101884.13;5027282;28;20500;-76
2021/12/12 03:15:38;;;;;;;23.23;5.00;;;;;;;2.96;93.08;101881.75;5044616;28;20045;-76
2021/12/12 03:18:05;;;;;;;;;;;;;;;2.87;92.71;101883.06;5045708;28;20469;-75
2021/12/12 03:20:36;;;;;;;19.88;5.30;;;;;;;2.89;93.78;101885.53;5045921;28;19916;-76
2021/12/12 03:23:25;;;;;;;17.70;5.15;;;;;;;2.84;93.50;101879.81;5044854;28;20429;-76
2021/12/12 03:25:59;;;;;;;16.33;5.28;;;;;;;2.90;93.76;101879.50;5038901;28;20033;-76
2021/12/12 03:28:28;;;;;;;16.35;4.10;;;;;;;2.96;93.86;101879.19;5044779;28;20445;-77
2021/12/12 03:30:56;;;;;;;14.23;5.00;;;;;;;2.78;94.64;101878.41;5040540;28;20029;-78
2021/12/12 03:33:22;;;;;;;18.88;4.95;;;;;;;2.85;94.68;101887.44;5036348;28;20043;-78
2021/12/12 03:35:51;;;;;;;17.17;5.22;;;;;;;2.82;95.57;101889.31;5041415;28;20064;-77
2021/12/12 03:38:18;;;;;;;13.95;4.88;;;;;;;2.88;95.71;101883.88;5021830;28;20044;-78
2021/12/12 03:40:45;;;;;;;19.23;5.30;;;;;;;2.83;96.17;101891.81;5044542;28;20063;-78
2021/12/12 03:43:13;;;;;;;14.02;4.65;;;;;;;2.95;95.89;101892.91;5046373;28;20032;-78
2021/12/12 03:45:41;;;;;;;16.40;5.43;;;;;;;2.83;96.42;101888.44;5045566;28;20037;-78
2021/12/12 03:48:12;;;;;;;21.85;5.40;;;;;;;2.84;96.89;101888.31;5028660;28;20064;-78
2021/12/12 03:50:41;;;;;;;16.17;5.05;;;;;;;2.95;97.17;101885.22;5045617;28;20413;-79
2021/12/12 03:53:07;;;;;;;17.02;4.63;;;;;;;2.95;96.76;101885.22;5034659;28;21180;-78
2021/12/12 03:55:34;;;;;;;27.63;5.35;;;;;;;2.96;97.46;101881.75;5050921;28;20048;-78
2021/12/12 03:58:01;;;;;;;25.38;5.18;;;;;;;3.05;97.15;101878.72;5033654;28;20472;-78
2021/12/12 04:00:31;;;;;;;18.40;4.70;;;;;;;3.07;96.68;101876.91;5036197;28;20033;-78
2021/12/12 04:02:57;;;;;;;21.27;5.43;;;;;;;3.12;96.56;101876.66;5048324;28;20021;-78
2021/12/12 04:05:23;;;;;;;20.23;4.88;;;;;;;3.00;97.31;101877.31;5050969;28;20037;-79
2021/12/12 04:07:50;;;;;;;19.17;5.47;;;;;;;3.02;97.57;101880.63;5042767;28;20625;-79
2021/12/12 04:10:19;;;;;;;19.13;6.15;;;;;;;2.99;97.86;101883.31;5030973;28;20041;-78
2021/12/12 04:12:46;;;;;;;17.33;4.97;;;;;;;3.00;97.63;101880.69;5048332;28;20059;-77
2021/12/12 04:15:12;;;;;;;15.63;4.80;;;;;;;3.11;97.80;101880.13;5047962;28;20033;-79
2021/12/12 04:17:38;;;;;;;20.17;5.82;;;;;;;3.05;97.95;101872.75;5046118;28;20044;-79
2021/12/12 04:20:11;;;;;;;16.50;5.43;;;;;;;3.02;98.11;101878.88;5031559;28;20029;-78
2021/12/12 04:22:37;;;;;;;14.48;5.55;;;;;;;3.04;98.25;101877.06;5042160;28;20044;-78
2021/12/12 04:25:04;;;;;;;21.13;5.60;;;;;;;3.13;98.76;101873.19;5048637;28;20029;-78
2021/12/12 04:27:30;;;;;;;22.42;6.05;;;;;;;3.24;98.76;101872.59;5028640;28;20029;-78
2021/12/12 04:29:56;;;;;;;17.77;5.55;;;;;;;3.20;98.50;101877.09;5048706;28;20397;-78
2021/12/12 04:32:27;;;;;;;19.35;5.70;;;;;;;3.08;99.21;101867.47;5029373;28;20076;-79
2021/12/12 04:35:08;;;;;;;12.82;5.30;;;;;;;3.06;99.59;101864.97;5028689;28;20258;-78
2021/12/12 04:37:34;;;;;;;20.20;5.47;;;;;;;3.09;99.94;101869.97;5048126;28;20131;-78
2021/12/12 04:40:00;;;;;;;26.98;5.88;;;;;;;3.07;100.00;101870.94;5046003;28;20051;-78
2021/12/12 04:42:34;;;;;;;25.02;5.90;;;;;;;3.09;100.00;101869.13;5044445;28;20052;-78
2021/12/12 04:45:42;;;;;;;22.00;5.82;;;;;;;3.20;100.00;101866.84;5047210;28;20093;-77
2021/12/12 04:51:45;;;;;;;21.15;6.25;;;;;;;3.19;100.00;101870.28;5043860;28;20045;-79
2021/12/12 04:54:27;;;;;;;17.70;5.35;;;;;;;3.17;100.00;101861.84;5049860;28;20036;-79
2021/12/12 04:57:01;;;;;;;24.35;5.20;;;;;;;3.17;100.00;101869.53;5048580;28;20043;-79
2021/12/12 04:59:34;;;;;;;20.80;6.20;;;;;;;3.26;100.00;101863.94;5033498;28;20033;-78
2021/12/12 05:02:17;;;;;;;16.65;5.82;;;;;;;3.19;100.00;101860.03;5032924;28;20611;-79
2021/12/12 05:04:54;;;;;;;26.13;5.60;;;;;;;3.23;100.00;101856.41;5050505;28;20096;-79
2021/12/12 05:07:36;;;;;;;22.10;5.88;;;;;;;3.22;100.00;101849.63;5032266;28;20049;-79
2021/12/12 05:10:22;;;;;;;26.27;6.60;;;;;;;3.19;100.00;101844.66;5049931;28;20043;-80
2021/12/12 05:13:02;;;;;;;22.13;5.82;;;;;;;3.28;100.00;101844.16;5029072;28;20510;-78
2021/12/12 05:15:37;;;;;;;24.85;6.20;;;;;;;3.28;100.00;101841.59;5048373;28;20021;-79
2021/12/12 05:18:27;;;;;;;20.42;5.90;;;;;;;3.26;100.00;101848.56;5049164;28;20132;-79
2021/12/12 05:21:01;;;;;;;26.45;5.88;;;;;;;3.35;100.00;101854.06;5032431;28;20063;-78
2021/12/12 05:23:29;;;;;;;22.30;5.65;;;;;;;3.29;100.00;101856.06;5049110;28;20043;-79
2021/12/12 05:26:01;;;;;;;26.77;7.25;;;;;;;3.31;100.00;101863.66;5040714;28;20501;-79
2021/12/12 05:28:32;;;;;;;28.10;6.00;;;;;;;3.30;100.00;101857.72;5049874;28;20037;-79
2021/12/12 05:31:00;;;;;;;23.45;5.38;;;;;;;3.31;100.00;101864.53;5048230;28;20041;-79
2021/12/12 05:33:28;;;;;;;22.50;6.18;;;;;;;3.41;100.00;101859.72;5035867;28;20033;-79
2021/12/12 05:35:55;;;;;;;21.90;6.25;;;;;;;3.46;100.00;101860.28;5050985;28;20037;-79
2021/12/12 05:38:25;;;;;;;23.45;5.78;;;;;;;3.43;100.00;101864.75;5048178;28;20025;-80
2021/12/12 05:40:51;;;;;;;35.10;7.15;;;;;;;3.44;100.00;101866.41;5049839;28;20043;-79
2021/12/12 05:43:17;;;;;;;28.25;7.47;;;;;;;3.48;100.00;101868.72;5029029;28;20068;-79
2021/12/12 05:45:45;;;;;;;26.08;6.70;;;;;;;3.54;100.00;101875.22;5049372;28;20236;-79
2021/12/12 05:48:11;;;;;;;20.50;7.05;;;;;;;3.49;100.00;101867.81;5029014;28;20044;-78
2021/12/12 05:50:39;;;;;;;19.58;6.90;;;;;;;3.59;100.00;101863.00;5049503;28;20033;-77
2021/12/12 05:53:04;;;;;;;21.52;6.40;;;;;;;3.60;100.00;101862.09;5031095;28;20041;-78
2021/12/12 05:55:33;;;;;;;17.42;6.75;;;;;;;3.60;100.00;101856.97;5048441;28;20036;-79
2021/12/12 05:58:01;;;;;;;23.48;7.30;;;;;;;3.48;100.00;101855.06;5030066;28;20520;-78
2021/12/12 06:00:31;;;;;;;20.73;7.32;;;;;;;3.55;100.00;101858.94;5030676;28;20060;-79
2021/12/12 06:02:58;;;;;;;20.05;6.85;;;;;;;3.53;100.00;101858.22;5047558;28;20033;-80
2021/12/12 06:05:24;;;;;;;26.55;7.18;;;;;;;3.58;100.00;101855.38;5048266;28;20041;-78
2021/12/12 06:07:53;;;;;;;23.95;7.90;;;;;;;3.54;100.00;101864.97;5045548;28;20037;-78
2021/12/12 06:10:20;;;;;;;23.30;7.18;;;;;;;3.49;100.00;101869.56;5027616;28;20040;-79
2021/12/12 06:12:46;;;;;;;26.48;7.80;;;;;;;3.50;100.00;101874.59;5045502;28;20414;-78
2021/12/12 06:15:16;;;;;;;22.13;7.10;;;;;;;3.51;100.00;101875.41;5047717;28;20056;-78
2021/12/12 06:17:43;;;;;;;18.70;6.57;;;;;;;3.60;100.00;101869.78;5051545;28;20546;-79
2021/12/12 06:20:10;;;;;;;24.52;7.15;;;;;;;3.57;100.00;101877.63;5030001;28;20395;-79
2021/12/12 06:22:37;;;;;;;21.55;7.47;;;;;;;3.54;100.00;101882.94;5044886;28;20051;-78
2021/12/12 06:25:07;;;;;;;17.15;7.32;;;;;;;3.69;100.00;101882.13;5029460;28;20119;-78
2021/12/12 06:27:34;;;;;;;19.17;7.15;;;;;;;3.67;100.00;101890.78;5047873;28;20048;-79
2021/12/12 06:30:00;;;;;;;19.27;6.95;;;;;;;3.72;100.00;101888.81;5029396;28;20041;-79
2021/12/12 06:32:26;;;;;;;19.52;6.97;;;;;;;3.71;100.00;101884.56;5031550;28;20064;-79
2021/12/12 06:34:56;;;;;;;18.17;6.32;;;;;;;3.72;100.00;101887.97;5047505;28;20098;-78
2021/12/12 06:37:22;;;;;;;22.33;6.85;;;;;;;3.79;100.00;101879.84;5028897;28;20492;-79
2021/12/12 06:39:48;;;;;;;19.73;7.28;;;;;;;3.82;100.00;101889.13;5042575;28;20079;-79
2021/12/12 06:42:14;;;;;;;23.85;6.82;;;;;;;3.84;100.00;101885.56;5047285;28;20120;-79
2021/12/12 06:44:41;;;;;;;18.77;7.60;;;;;;;3.75;100.00;101887.78;5046990;28;20037;-79
2021/12/12 06:47:09;;;;;;;15.75;6.45;;;;;;;3.76;100.00;101885.16;5031132;28;20045;-79
2021/12/12 06:49:36;;;;;;;20.98;6.60;;;;;;;3.75;100.00;101886.06;5042295;28;20037;-79
2021/12/12 06:52:05;;;;;;;19.00;7.47;;;;;;;3.72;100.00;101883.66;5026446;28;20028;-79
2021/12/12 06:54:32;;;;;;;11.40;6.38;;;;;;;3.78;100.00;101885.88;5030069;28;20025;-80
2021/12/12 06:57:03;;;;;;;25.02;8.55;;;;;;;3.76;100.00;101886.91;5048161;28;20040;-79
2021/12/12 06:59:31;;;;;;;19.95;6.93;;;;;;;3.79;100.00;101884.16;5050941;28;20120;-79
2021/12/12 07:01:57;;;;;;;18.38;7.25;;;;;;;3.83;100.00;101896.72;5030916;28;20020;-79
2021/12/12 07:04:23;;;;;;;16.75;6.90;;;;;;;3.91;100.00;101886.03;5047192;28;20087;-79
2021/12/12 07:06:54;;;;;;;24.00;7.40;;;;;;;3.80;100.00;101885.81;5028189;28;20033;-79
2021/12/12 07:09:21;;;;;;;22.65;6.78;;;;;;;3.88;100.00;101892.19;5045336;28;20151;-79
2021/12/12 07:11:47;;;;;;;24.25;7.72;;;;;;;3.94;100.00;101888.44;5047569;28;20092;-79
2021/12/12 07:14:15;;;;;;;24.83;7.75;;;;;;;3.95;100.00;101890.06;5028300;28;20035;-79
2021/12/12 07:16:42;;;;;;;20.35;7.18;;;;;;;3.93;100.00;101886.78;5032141;28;20048;-79
2021/12/12 07:19:07;;;;;;;18.48;7.53;;;;;;;3.95;100.00;101884.94;5047511;28;20037;-79
2021/12/12 07:21:34;;;;;;;23.02;7.63;;;;;;;4.05;100.00;101873.25;5052576;28;20041;-79
2021/12/12 07:24:02;;;;;;;25.73;8.02;;;;;;;4.01;100.00;101884.63;5043779;28;20433;-79
2021/12/12 07:26:28;;;;;;;18.73;7.28;;;;;;;4.03;100.00;101882.78;5047676;28;20029;-80
2021/12/12 07:28:56;;;;;;;19.17;7.40;;;;;;;4.17;100.00;101882.00;5050343;28;20041;-79
2021/12/12 07:31:24;;;;;;;18.85;6.65;;;;;;;4.10;100.00;101878.94;5031075;28;20047;-80
2021/12/12 07:33:56;;;;;;;23.50;6.85;;;;;;;4.13;100.00;101880.53;5030035;28;20037;-79
2021/12/12 07:36:24;;;;;;;17.20;6.72;;;;;;;4.04;100.00;101878.47;5023073;28;20160;-79
2021/12/12 07:38:59;;;;;;;18.83;8.52;;;;;;;4.08;100.00;101878.19;5047052;28;20055;-79
2021/12/12 07:41:29;;;;;;;20.85;7.38;;;;;;;4.12;100.00;101870.34;5023120;28;20083;-79
2021/12/12 07:43:57;;;;;;;21.08;7.18;;;;;;;4.03;100.00;101874.25;5047713;28;20029;-79
2021/12/12 07:46:23;;;;;;;18.40;7.05;;;;;;;4.14;100.00;101873.63;5052157;28;20214;-79
2021/12/12 07:48:51;;;;;;;16.40;7.57;;;;;;;4.09;100.00;101887.56;5053309;28;20047;-79
2021/12/12 07:51:19;;;;;;;24.17;8.10;;;;;;;4.15;100.00;101888.97;5042066;28;20037;-79
2021/12/12 07:53:49;;;;;;;19.30;7.75;;;;;;;4.24;100.00;101888.44;5032711;28;20044;-80
2021/12/12 07:56:15;;;;;;;19.67;6.50;;;;;;;4.19;100.00;101887.88;5047389;28;20383;-79
2021/12/12 07:58:41;;;;;;;20.23;7.35;;;;;;;4.29;100.00;101890.72;5047574;28;20024;-79
2021/12/12 08:01:07;;;;;;;22.17;7.47;;;;;;;4.28;100.00;101889.09;5046221;28;20199;-78
2021/12/12 08:03:35;;;;;;;16.20;7.00;;;;;;;4.34;100.00;101888.72;5047024;28;20409;-79
2021/12/12 08:06:02;;;;;;;17.08;6.97;;;;;;;4.34;100.00;101885.34;5026797;28;20037;-78
2021/12/12 08:08:29;;;;;;;14.48;5.63;;;;;;;4.34;100.00;101878.47;5055233;28;20029;-83
2021/12/12 08:10:56;;;;;;;17.08;6.38;;;;;;;4.23;100.00;101876.50;5034149;28;20056;-82
2021/12/12 08:13:21;;;;;;;13.82;6.25;;;;;;;4.23;100.00;101880.81;5025033;28;20049;-82
2021/12/12 08:15:48;;;;;;;18.27;8.05;;;;;;;4.29;100.00;101886.44;5031449;28;20497;-81
2021/12/12 08:18:16;;;;;;;26.20;8.48;;;;;;;4.32;100.00;101892.31;5024303;28;20136;-82
2021/12/12 08:20:50;;;;;;;17.40;7.70;;;;;;;4.27;100.00;101895.13;5032123;28;20109;-82
2021/12/12 08:23:17;;;;;;;14.77;6.90;;;;;;;4.42;100.00;101895.97;5028239;28;20056;-82
2021/12/12 08:25:45;;;;;;;12.80;7.22;;;;;;;4.35;100.00;101905.81;5031529;28;20423;-82
2021/12/12 08:28:12;;;;;;;17.10;7.45;;;;;;;4.41;100.00;101914.91;5052052;28;20082;-81
2021/12/12 08:30:38;;;;;;;29.60;12.45;;;;;;;4.49;100.00;101915.28;5047570;28;20028;-82
2021/12/12 08:33:06;;;;;;;15.07;6.22;;;;;;;4.85;100.00;101912.25;5031502;28;20509;-82
2021/12/12 08:35:32;;;;;;;12.20;6.13;;;;;;;4.80;100.00;101916.88;5030976;28;20041;-82
2021/12/12 08:38:02;;;;;;;11.25;6.47;;;;;;;4.78;100.00;101913.53;5042887;28;20120;-82
2021/12/12 08:40:31;;;;;;;12.65;7.60;;;;;;;4.78;100.00;101917.88;5050514;28;20127;-81
2021/12/12 08:42:57;;;;;;;16.40;9.05;;;;;;;4.81;100.00;101927.97;5031501;28;20563;-81
2021/12/12 08:45:31;;;;;;;65.70;30.05;;;;;;;4.87;100.00;101928.41;5030505;28;20065;-82
2021/12/12 08:47:58;;;;;;;13.70;5.28;;;;;;;5.07;100.00;101931.56;5048291;28;20063;-81
2021/12/12 08:50:29;;;;;;;10.40;6.13;;;;;;;4.98;100.00;101929.53;5046072;28;20037;-81
2021/12/12 08:52:56;;;;;;;11.38;5.00;;;;;;;5.03;100.00;101932.66;5025059;28;20041;-81
2021/12/12 08:55:31;;;;;;;8.50;4.60;;;;;;;5.01;100.00;101939.63;5029526;28;20417;-82
2021/12/12 08:58:05;;;;;;;10.02;4.07;;;;;;;5.18;100.00;101944.59;5047724;28;20477;-80
2021/12/12 09:00:39;;;;;;;8.18;4.80;;;;;;;5.20;100.00;101932.47;5047316;28;20041;-81
2021/12/12 09:03:06;;;;;;;8.93;4.15;;;;;;;5.28;100.00;101938.91;5030698;28;20052;-82
2021/12/12 09:05:36;;;;;;;12.32;4.63;;;;;;;5.32;100.00;101935.22;5032797;28;20021;-81
2021/12/12 09:08:12;;;;;;;8.18;3.90;;;;;;;5.50;100.00;101934.09;5023947;28;20071;-79
2021/12/12 09:10:46;;;;;;;6.38;3.78;;;;;;;5.46;100.00;101933.44;5046548;28;20294;-81
2021/12/12 09:13:19;;;;;;;16.00;4.65;;;;;;;5.40;100.00;101936.38;5046024;28;20116;-81
2021/12/12 09:15:47;;;;;;;7.43;3.97;;;;;;;5.60;100.00;101935.16;5046139;28;20389;-80
2021/12/12 09:18:27;;;;;;;13.85;7.78;;;;;;;5.49;100.00;101947.03;5030475;28;20470;-81
2021/12/12 09:20:58;;;;;;;11.23;5.90;;;;;;;5.51;100.00;101953.72;5026787;28;20025;-81
2021/12/12 09:23:29;;;;;;;14.48;6.32;;;;;;;5.57;100.00;101948.19;5047375;28;20299;-81
2021/12/12 09:26:26;;;;;;;11.00;7.55;;;;;;;5.52;100.00;101946.81;5020528;28;20422;-81
2021/12/12 09:29:01;;;;;;;14.60;7.13;;;;;;;5.51;100.00;101945.19;5042113;28;20048;-81
2021/12/12 09:31:33;;;;;;;9.90;5.65;;;;;;;5.49;100.00;101942.72;5029064;28;20033;-81
2021/12/12 09:34:07;;;;;;;10.55;4.78;;;;;;;5.57;100.00;101950.78;5046055;28;20067;-81
2021/12/12 09:36:50;;;;;;;8.18;5.07;;;;;;;5.60;100.00;101954.91;5048946;28;20158;-81
2021/12/12 09:39:24;;;;;;;8.25;4.55;;;;;;;5.72;100.00;101953.31;5044637;28;20046;-81
2021/12/12 09:42:17;;;;;;;9.32;3.45;;;;;;;5.76;100.00;101959.91;5038312;28;20048;-80
2021/12/12 09:44:51;;;;;;;;;;;;;;;5.67;100.00;101953.63;5029540;28;20120;-81
2021/12/12 09:48:13;;;;;;;10.18;4.90;;;;;;;5.61;100.00;101957.41;5028790;28;19917;-82
2021/12/12 09:51:16;;;;;;;6.97;4.90;;;;;;;5.72;100.00;101951.56;5041720;28;20398;-81
2021/12/12 09:54:02;;;;;;;10.35;4.60;;;;;;;5.64;100.00;101959.75;5030243;28;20036;-81
2021/12/12 09:56:48;;;;;;;6.82;4.18;;;;;;;5.64;100.00;101953.81;5038945;28;20076;-81
2021/12/12 09:59:26;;;;;;;8.65;5.72;;;;;;;5.64;100.00;101957.19;5048785;28;20056;-81
2021/12/12 10:02:07;;;;;;;9.65;5.25;;;;;;;5.69;100.00;101951.78;5049599;28;20036;-81
2021/12/12 10:04:54;;;;;;;7.97;4.78;;;;;;;5.86;100.00;101950.72;5036631;28;20086;-81
2021/12/12 10:07:33;;;;;;;9.85;3.63;;;;;;;5.89;100.00;101955.66;5027750;28;20045;-81
2021/12/12 10:10:05;;;;;;;8.23;4.03;;;;;;;5.90;100.00;101953.94;5025541;28;20402;-81
2021/12/12 10:12:36;;;;;;;12.40;4.72;;;;;;;5.97;100.00;101956.03;5034541;28;20481;-82
2021/12/12 10:15:18;;;;;;;13.80;5.18;;;;;;;6.11;100.00;101949.19;5046549;28;20064;-81
2021/12/12 10:17:46;;;;;;;12.85;6.53;;;;;;;6.08;100.00;101957.09;5047863;28;20039;-82
2021/12/12 10:20:25;;;;;;;11.82;4.57;;;;;;;6.00;100.00;101952.44;5026619;28;20481;-81
2021/12/12 10:23:16;;;;;;;11.00;4.93;;;;;;;6.11;100.00;101949.19;5043102;28;20052;-81
2021/12/12 10:25:50;;;;;;;8.80;3.75;;;;;;;6.04;100.00;101956.47;5046440;28;20056;-81
2021/12/12 10:28:24;;;;;;;13.20;4.95;;;;;;;6.00;100.00;101958.41;5050126;28;20064;-81
2021/12/12 10:31:18;;;;;;;8.90;4.93;;;;;;;6.07;100.00;101956.28;5045071;28;20075;-81
2021/12/12 10:33:50;;;;;;;13.90;5.30;;;;;;;6.19;100.00;101952.06;5040413;28;20044;-80
2021/12/12 10:36:19;;;;;;;12.85;4.65;;;;;;;6.22;100.00;101965.59;5048950;28;20517;-81
2021/12/12 10:39:00;;;;;;;15.05;4.97;;;;;;;6.24;100.00;101958.59;5050559;28;20068;-80
2021/12/12 10:41:39;;;;;;;12.65;5.63;;;;;;;6.32;100.00;101965.81;5029223;28;20041;-79
2021/12/12 10:44:14;;;;;;;12.02;4.00;;;;;;;6.53;100.00;101955.84;5049501;28;20468;-80
2021/12/12 10:46:57;;;;;;;8.95;4.60;;;;;;;6.33;100.00;101952.03;5032757;28;20037;-81
2021/12/12 10:49:36;;;;;;;11.02;4.20;;;;;;;6.30;100.00;101954.78;5043246;28;20048;-77
2021/12/12 10:52:08;;;;;;;10.90;4.07;;;;;;;6.35;100.00;101957.88;5047107;28;20136;-79
2021/12/12 10:54:47;;;;;;;9.48;4.18;;;;;;;6.39;100.00;101961.91;5023441;28;20041;-78
2021/12/12 10:57:18;;;;;;;10.98;4.68;;;;;;;6.49;100.00;101956.16;5062001;28;20418;-81
2021/12/12 11:00:05;;;;;;;9.90;3.97;;;;;;;6.40;100.00;101955.84;5029322;28;20048;-81
2021/12/12 11:02:59;;;;;;;9.32;4.03;;;;;;;6.46;100.00;101957.19;5038591;28;20043;-81
2021/12/12 11:05:36;;;;;;;8.73;3.63;;;;;;;6.40;100.00;101957.56;5048556;28;20549;-82
2021/12/12 11:08:13;;;;;;;9.20;4.00;;;;;;;6.49;100.00;101963.88;5031718;28;20033;-81
2021/12/12 11:10:41;;;;;;;13.20;4.18;;;;;;;6.52;100.00;101961.13;5046606;28;20033;-81
2021/12/12 11:13:16;;;;;;;11.75;3.92;;;;;;;6.56;100.00;101967.72;5026175;28;20040;-82
2021/12/12 11:15:44;;;;;;;11.30;3.60;;;;;;;6.48;100.00;101969.97;5045104;28;20077;-81
2021/12/12 11:18:27;;;;;;;9.48;3.95;;;;;;;6.49;100.00;101969.03;5048258;28;20032;-81
2021/12/12 11:20:59;;;;;;;12.48;4.03;;;;;;;6.51;100.00;101968.00;5029636;28;20393;-81
2021/12/12 11:23:33;;;;;;;6.80;3.45;;;;;;;6.51;100.00;101962.03;5032741;28;20052;-82
2021/12/12 11:26:05;;;;;;;7.93;3.45;;;;;;;6.50;100.00;101960.38;5049833;28;20044;-80
2021/12/12 11:28:40;;;;;;;13.70;4.18;;;;;;;6.65;100.00;101955.97;5032533;28;20080;-81
2021/12/12 11:31:17;;;;;;;16.38;4.15;;;;;;;6.58;100.00;101958.94;5044262;28;20463;-82
2021/12/12 11:33:47;;;;;;;7.53;4.10;;;;;;;6.63;100.00;101958.66;5025368;28;20033;-81
2021/12/12 11:36:18;;;;;;;11.77;4.75;;;;;;;6.73;100.00;101959.69;5045810;28;20387;-82
2021/12/12 11:39:00;;;;;;;32.60;13.30;;;;;;;6.92;100.00;101961.84;5049400;28;20029;-80
2021/12/12 11:41:34;;;;;;;27.30;9.10;;;;;;;6.92;100.00;101961.03;5032227;28;20120;-80
2021/12/12 11:44:08;;;;;;;32.75;11.50;;;;;;;6.90;100.00;101960.31;5029831;28;20103;-80
2021/12/12 11:47:05;;;;;;;33.75;14.20;;;;;;;7.03;100.00;101955.97;5043780;28;20033;-80
2021/12/12 11:49:54;;;;;;;17.88;5.85;;;;;;;6.97;100.00;101966.72;5044397;28;20043;-82
2021/12/12 11:52:52;;;;;;;27.33;9.02;;;;;;;6.95;100.00;101965.97;5042883;28;20052;-82
2021/12/12 11:55:29;;;;;;;22.90;6.38;;;;;;;6.95;100.00;101960.81;5049601;28;20672;-82
2021/12/12 11:58:11;;;;;;;18.80;8.13;;;;;;;7.02;100.00;101959.47;5042982;28;20025;-82
2021/12/12 12:00:40;;;;;;;21.00;8.85;;;;;;;7.17;100.00;101968.72;5044884;28;20044;-81
2021/12/12 12:03:32;;;;;;;19.13;8.52;;;;;;;7.09;100.00;101965.88;5047433;28;20025;-81